createdAt,value
2019-04-07T00:00:54.507Z,99860.69
2019-04-07T00:03:27.948Z,99863.63
2019-04-07T00:06:01.454Z,99861.52
2019-04-07T00:08:34.898Z,99861.06
2019-04-07T00:11:08.403Z,99863.17
2019-04-07T00:13:41.729Z,99850.91
2019-04-07T00:16:15.713Z,99857.78
2019-04-07T00:18:49.568Z,99856.70
2019-04-07T00:21:22.931Z,99850.73
2019-04-07T00:23:56.295Z,99852.88
2019-04-07T00:26:29.747Z,99850.92
2019-04-07T00:29:03.264Z,99848.95
2019-04-07T00:31:36.678Z,99844.62
2019-04-07T00:34:10.787Z,99844.65
2019-04-07T00:36:44.767Z,99843.75
2019-04-07T00:39:18.327Z,99839.80
2019-04-07T00:41:51.836Z,99846.73
2019-04-07T00:44:25.195Z,99844.62
2019-04-07T00:46:58.629Z,99848.55
2019-04-07T00:49:32.305Z,99843.61
2019-04-07T00:52:08.553Z,99845.33
2019-04-07T00:54:42.411Z,99846.61
2019-04-07T00:57:16.397Z,99836.80
2019-04-07T00:59:50.579Z,99841.08
2019-04-07T01:02:24.489Z,99840.06
2019-04-07T01:04:58.371Z,99844.43
2019-04-07T01:07:31.820Z,99845.61
2019-04-07T01:10:06.177Z,99840.34
2019-04-07T01:12:40.017Z,99844.91
2019-04-07T01:15:14.050Z,99847.43
2019-04-07T01:17:47.524Z,99842.23
2019-04-07T01:20:21.599Z,99839.70
2019-04-07T01:22:55.273Z,99842.13
2019-04-07T01:25:29.257Z,99846.20
2019-04-07T01:28:02.783Z,99846.39
2019-04-07T01:30:36.941Z,99847.38
2019-04-07T01:33:10.485Z,99846.92
2019-04-07T01:35:48.124Z,99846.13
2019-04-07T01:38:19.227Z,99844.55
2019-04-07T01:40:57.142Z,99840.25
2019-04-07T01:43:44.713Z,99843.27
2019-04-07T01:46:26.172Z,99836.95
2019-04-07T01:49:13.498Z,99843.78
2019-04-07T01:51:48.801Z,99842.59
2019-04-07T01:54:27.152Z,99838.03
2019-04-07T01:57:02.344Z,99841.08
2019-04-07T01:59:49.958Z,99846.36
2019-04-07T02:02:41.342Z,99847.73
2019-04-07T02:05:31.654Z,99841.70
2019-04-07T02:08:22.107Z,99847.64
2019-04-07T02:11:13.626Z,99850.06
2019-04-07T02:13:48.721Z,99850.77
2019-04-07T02:16:26.994Z,99849.58
2019-04-07T02:19:05.110Z,99849.05
2019-04-07T02:21:53.005Z,99852.78
2019-04-07T02:24:28.429Z,99858.25
2019-04-07T02:27:06.044Z,99853.14
2019-04-07T02:29:53.176Z,99854.56
2019-04-07T02:32:44.431Z,99853.16
2019-04-07T02:35:37.753Z,99856.62
2019-04-07T02:38:17.659Z,99859.09
2019-04-07T02:40:55.755Z,99858.95
2019-04-07T02:43:36.514Z,99859.77
2019-04-07T02:46:27.192Z,99865.68
2019-04-07T02:52:05.789Z,99863.58
2019-04-07T02:54:44.485Z,99863.13
2019-04-07T02:57:19.541Z,99866.59
2019-04-07T02:59:55.755Z,99867.93
2019-04-07T03:02:34.632Z,99867.95
2019-04-07T03:05:12.489Z,99867.95
2019-04-07T03:07:48.687Z,99860.81
2019-04-07T03:10:33.421Z,99865.60
2019-04-07T03:13:11.170Z,99868.70
2019-04-07T03:15:49.120Z,99873.73
2019-04-07T03:21:29.272Z,99871.54
2019-04-07T03:27:16.344Z,99883.89
2019-04-07T03:30:06.570Z,99879.96
2019-04-07T03:33:00.224Z,99885.06
2019-04-07T03:35:35.352Z,99877.00
2019-04-07T03:38:12.028Z,99882.51
2019-04-07T03:40:56.934Z,99881.68
2019-04-07T03:43:47.118Z,99874.11
2019-04-07T03:46:22.175Z,99874.61
2019-04-07T03:49:13.493Z,99875.49
2019-04-07T03:51:58.061Z,99875.52
2019-04-07T03:54:39.979Z,99877.75
2019-04-07T03:57:17.986Z,99878.80
2019-04-07T03:59:55.871Z,99874.23
2019-04-07T04:02:31.581Z,99874.42
2019-04-07T04:05:19.351Z,99880.73
2019-04-07T04:07:54.645Z,99884.48
2019-04-07T04:10:30.125Z,99882.69
2019-04-07T04:13:07.906Z,99883.89
2019-04-07T04:15:43.562Z,99883.50
2019-04-07T04:18:16.978Z,99883.97
2019-04-07T04:20:50.479Z,99885.37
2019-04-07T04:23:23.825Z,99876.91
2019-04-07T04:25:57.250Z,99876.97
2019-04-07T04:28:30.768Z,99879.59
2019-04-07T04:31:04.657Z,99878.45
2019-04-07T04:33:38.174Z,99885.72
2019-04-07T04:36:11.525Z,99887.59
2019-04-07T04:38:44.917Z,99884.13
2019-04-07T04:41:19.211Z,99888.73
2019-04-07T04:43:53.469Z,99887.88
2019-04-07T04:46:27.223Z,99894.23
2019-04-07T04:49:00.675Z,99892.16
2019-04-07T04:51:37.076Z,99896.86
2019-04-07T04:54:09.117Z,99895.22
2019-04-07T04:56:43.397Z,99902.93
2019-04-07T04:59:16.896Z,99905.53
2019-04-07T05:01:51.092Z,99900.64
2019-04-07T05:04:24.645Z,99906.83
2019-04-07T05:06:58.150Z,99909.30
2019-04-07T05:09:41.099Z,99915.11
2019-04-07T05:12:06.940Z,99919.28
2019-04-07T05:14:40.292Z,99920.06
2019-04-07T05:17:13.672Z,99919.44
2019-04-07T05:19:47.072Z,99925.64
2019-04-07T05:22:20.429Z,99925.91
2019-04-07T05:24:53.812Z,99928.02
2019-04-07T05:27:27.685Z,99933.02
2019-04-07T05:30:01.234Z,99936.59
2019-04-07T05:32:34.988Z,99942.11
2019-04-07T05:35:08.908Z,99944.90
2019-04-07T05:37:42.554Z,99947.56
2019-04-07T05:40:16.647Z,99949.44
2019-04-07T05:42:49.999Z,99951.70
2019-04-07T05:45:23.845Z,99958.68
2019-04-07T05:47:57.865Z,99958.83
2019-04-07T05:50:31.852Z,99959.75
2019-04-07T05:53:06.825Z,99962.39
2019-04-07T05:55:40.589Z,99959.91
2019-04-07T05:58:15.670Z,99967.55
2019-04-07T06:00:50.167Z,99967.47
2019-04-07T06:03:23.698Z,99972.05
2019-04-07T06:05:58.034Z,99971.94
2019-04-07T06:08:37.136Z,99972.16
2019-04-07T06:11:06.577Z,99971.96
2019-04-07T06:13:41.876Z,99970.89
2019-04-07T06:16:15.186Z,99972.33
2019-04-07T06:18:48.622Z,99976.07
2019-04-07T06:21:22.216Z,99973.41
2019-04-07T06:23:59.398Z,99981.34
2019-04-07T06:26:31.250Z,99979.73
2019-04-07T06:29:04.851Z,99978.35
2019-04-07T06:31:38.312Z,99975.36
2019-04-07T06:34:12.196Z,99964.31
2019-04-07T06:36:46.302Z,99963.27
2019-04-07T06:39:21.433Z,99974.55
2019-04-07T06:41:55.120Z,99971.02
2019-04-07T06:44:29.037Z,99966.55
2019-04-07T06:47:19.003Z,99965.95
2019-04-07T06:49:57.497Z,99961.69
2019-04-07T06:52:42.079Z,99961.29
2019-04-07T06:55:26.622Z,99967.58
2019-04-07T06:58:00.347Z,99970.41
2019-04-07T07:00:40.962Z,99968.06
2019-04-07T07:03:21.810Z,99968.99
2019-04-07T07:06:01.112Z,99964.82
2019-04-07T07:08:53.010Z,99974.73
2019-04-07T07:11:44.072Z,99972.19
2019-04-07T07:14:38.459Z,99968.75
2019-04-07T07:17:14.960Z,99968.92
2019-04-07T07:20:03.585Z,99969.36
2019-04-07T07:22:40.279Z,99969.24
2019-04-07T07:25:13.301Z,99971.55
2019-04-07T07:27:46.624Z,99971.81
2019-04-07T07:30:20.624Z,99968.69
2019-04-07T07:32:55.298Z,99975.44
2019-04-07T07:35:28.787Z,99978.34
2019-04-07T07:38:02.760Z,99980.84
2019-04-07T07:40:36.159Z,99978.46
2019-04-07T07:43:09.780Z,99976.77
2019-04-07T07:45:46.991Z,99979.97
2019-04-07T07:48:20.872Z,99979.23
2019-04-07T07:50:53.842Z,99975.59
2019-04-07T07:53:28.633Z,99977.47
2019-04-07T07:56:02.131Z,99982.77
2019-04-07T07:58:35.589Z,99977.61
2019-04-07T08:01:11.281Z,99979.07
2019-04-07T08:03:44.237Z,99979.61
2019-04-07T08:06:18.459Z,99978.52
2019-04-07T08:08:53.637Z,99975.06
2019-04-07T08:11:30.773Z,99975.22
2019-04-07T08:14:02.426Z,99976.17
2019-04-07T08:16:35.803Z,99987.95
2019-04-07T08:19:10.077Z,99980.74
2019-04-07T08:21:45.429Z,99986.31
2019-04-07T08:24:19.209Z,99983.25
2019-04-07T08:26:56.310Z,99981.70
2019-04-07T08:29:28.019Z,99979.66
2019-04-07T08:32:02.098Z,99993.16
2019-04-07T08:34:36.144Z,99989.78
2019-04-07T08:37:09.629Z,100002.74
2019-04-07T08:39:43.301Z,99990.52
2019-04-07T08:42:18.702Z,99992.47
2019-04-07T08:44:52.293Z,99994.13
2019-04-07T08:47:25.859Z,99986.95
2019-04-07T08:49:59.794Z,99991.26
2019-04-07T08:52:33.398Z,99997.09
2019-04-07T08:55:07.292Z,99988.45
2019-04-07T08:57:41.323Z,99989.55
2019-04-07T09:00:17.344Z,99998.52
2019-04-07T09:03:01.571Z,99993.80
2019-04-07T09:05:30.773Z,99992.86
2019-04-07T09:08:05.584Z,99994.30
2019-04-07T09:10:49.546Z,100000.63
2019-04-07T09:13:22.878Z,100003.99
2019-04-07T09:16:04.660Z,99995.61
2019-04-07T09:21:50.237Z,99995.55
2019-04-07T09:24:40.343Z,99992.45
2019-04-07T09:27:30.601Z,99992.62
2019-04-07T09:30:10.161Z,99993.95
2019-04-07T09:32:48.624Z,99990.11
2019-04-07T09:35:26.822Z,99984.47
2019-04-07T09:38:14.391Z,99985.84
2019-04-07T09:41:06.276Z,99989.50
2019-04-07T09:43:46.819Z,99982.09
2019-04-07T09:46:27.616Z,99994.53
2019-04-07T09:49:03.419Z,99980.16
2019-04-07T09:51:44.898Z,99989.38
2019-04-07T09:54:22.204Z,99989.83
2019-04-07T09:57:03.415Z,99981.38
2019-04-07T09:59:50.905Z,99986.29
2019-04-07T10:02:25.079Z,99991.97
2019-04-07T10:05:00.223Z,99976.32
2019-04-07T10:07:51.836Z,99986.37
2019-04-07T10:10:32.448Z,99990.19
2019-04-07T10:13:07.709Z,99983.59
2019-04-07T10:15:43.196Z,99977.09
2019-04-07T10:18:18.231Z,99983.14
2019-04-07T10:21:09.942Z,99983.45
2019-04-07T10:23:45.854Z,99982.05
2019-04-07T10:26:36.999Z,99975.86
2019-04-07T10:29:15.404Z,99984.42
2019-04-07T10:31:50.435Z,99983.23
2019-04-07T10:34:28.457Z,99981.52
2019-04-07T10:37:06.783Z,99992.28
2019-04-07T10:39:59.365Z,99986.37
2019-04-07T10:42:38.021Z,99993.40
2019-04-07T10:45:36.345Z,99979.77
2019-04-07T10:48:11.737Z,99977.57
2019-04-07T10:50:46.952Z,99984.45
2019-04-07T10:53:40.559Z,99972.17
2019-04-07T10:56:16.315Z,99981.38
2019-04-07T10:59:07.615Z,99973.25
2019-04-07T11:04:45.070Z,99973.80
2019-04-07T11:07:20.511Z,99975.84
2019-04-07T11:10:07.352Z,99972.72
2019-04-07T11:12:54.847Z,99969.34
2019-04-07T11:15:30.655Z,99970.47
2019-04-07T11:18:08.758Z,99967.05
2019-04-07T11:20:47.156Z,99962.55
2019-04-07T11:23:22.961Z,99954.05
2019-04-07T11:25:58.030Z,99963.41
2019-04-07T11:28:36.221Z,99973.62
2019-04-07T11:31:11.257Z,99960.14
2019-04-07T11:33:48.976Z,99956.92
2019-04-07T11:36:24.471Z,99957.16
2019-04-07T11:39:05.824Z,99954.10
2019-04-07T11:41:49.870Z,99956.27
2019-04-07T11:44:41.224Z,99946.66
2019-04-07T11:47:19.638Z,99945.20
2019-04-07T11:49:55.199Z,99945.70
2019-04-07T11:52:33.192Z,99947.13
2019-04-07T11:55:11.978Z,99945.45
2019-04-07T11:58:06.360Z,99947.80
2019-04-07T12:00:40.366Z,99945.97
2019-04-07T12:03:18.278Z,99946.36
2019-04-07T12:05:53.953Z,99944.97
2019-04-07T12:08:36.290Z,99942.33
2019-04-07T12:11:30.994Z,99947.77
2019-04-07T12:14:06.374Z,99946.34
2019-04-07T12:16:46.889Z,99943.86
2019-04-07T12:19:31.088Z,99939.78
2019-04-07T12:22:13.197Z,99940.78
2019-04-07T12:25:06.820Z,99943.24
2019-04-07T12:27:58.107Z,99940.39
2019-04-07T12:30:42.603Z,99937.42
2019-04-07T12:33:29.652Z,99930.55
2019-04-07T12:36:17.279Z,99936.50
2019-04-07T12:39:01.788Z,99942.08
2019-04-07T12:41:43.690Z,99938.05
2019-04-07T12:44:19.104Z,99939.55
2019-04-07T12:46:57.220Z,99930.91
2019-04-07T12:49:45.743Z,99926.41
2019-04-07T12:52:21.799Z,99933.35
2019-04-07T12:55:17.502Z,99928.95
2019-04-07T12:57:59.864Z,99929.84
2019-04-07T13:00:53.063Z,99933.67
2019-04-07T13:03:26.072Z,99941.58
2019-04-07T13:06:06.354Z,99932.44
2019-04-07T13:08:40.679Z,99926.20
2019-04-07T13:11:33.999Z,99922.02
2019-04-07T13:14:14.026Z,99912.41
2019-04-07T13:17:05.414Z,99924.53
2019-04-07T13:19:48.913Z,99917.30
2019-04-07T13:22:22.791Z,99920.08
2019-04-07T13:25:01.753Z,99916.86
2019-04-07T13:27:50.135Z,99911.38
2019-04-07T13:30:41.017Z,99917.55
2019-04-07T13:33:26.451Z,99906.52
2019-04-07T13:36:15.920Z,99910.28
2019-04-07T13:39:07.352Z,99907.80
2019-04-07T13:41:55.277Z,99906.39
2019-04-07T13:44:46.237Z,99906.17
2019-04-07T13:47:22.011Z,99900.78
2019-04-07T13:50:06.311Z,99900.17
2019-04-07T13:52:59.137Z,99895.42
2019-04-07T13:55:46.375Z,99899.92
2019-04-07T13:58:21.860Z,99906.86
2019-04-07T14:01:17.994Z,99902.69
2019-04-07T14:03:58.939Z,99905.86
2019-04-07T14:06:49.390Z,99899.76
2019-04-07T14:09:31.673Z,99902.81
2019-04-07T14:12:10.155Z,99912.41
2019-04-07T14:14:44.636Z,99898.67
2019-04-07T14:17:22.926Z,99905.95
2019-04-07T14:20:00.898Z,99903.98
2019-04-07T14:22:48.735Z,99901.41
2019-04-07T14:25:29.860Z,99898.58
2019-04-07T14:28:21.063Z,99896.28
2019-04-07T14:31:12.868Z,99890.53
2019-04-07T14:33:48.108Z,99892.96
2019-04-07T14:36:41.568Z,99895.58
2019-04-07T14:39:17.976Z,99890.92
2019-04-07T14:42:06.334Z,99886.44
2019-04-07T14:44:39.067Z,99895.39
2019-04-07T14:47:16.553Z,99896.27
2019-04-07T14:49:55.098Z,99903.91
2019-04-07T14:52:39.422Z,99897.80
2019-04-07T14:58:23.240Z,99895.27
2019-04-07T15:01:06.740Z,99894.37
2019-04-07T15:03:39.551Z,99892.92
2019-04-07T15:06:12.981Z,99890.95
2019-04-07T15:08:53.770Z,99893.11
2019-04-07T15:11:29.697Z,99891.62
2019-04-07T15:14:04.172Z,99890.95
2019-04-07T15:16:38.265Z,99887.84
2019-04-07T15:19:11.841Z,99887.44
2019-04-07T15:21:45.262Z,99887.16
2019-04-07T15:24:18.745Z,99885.09
2019-04-07T15:26:53.004Z,99888.56
2019-04-07T15:29:26.453Z,99884.05
2019-04-07T15:31:59.871Z,99880.33
2019-04-07T15:34:34.247Z,99890.23
2019-04-07T15:37:07.876Z,99881.45
2019-04-07T15:39:41.609Z,99885.33
2019-04-07T15:42:24.673Z,99885.98
2019-04-07T15:44:50.856Z,99884.81
2019-04-07T15:47:24.423Z,99885.55
2019-04-07T15:49:59.266Z,99886.03
2019-04-07T15:52:33.031Z,99890.86
2019-04-07T15:55:07.207Z,99887.67
2019-04-07T15:57:40.780Z,99887.76
2019-04-07T16:00:15.332Z,99890.81
2019-04-07T16:02:50.190Z,99890.02
2019-04-07T16:05:23.860Z,99893.94
2019-04-07T16:07:57.805Z,99886.93
2019-04-07T16:10:31.334Z,99894.34
2019-04-07T16:13:04.867Z,99893.92
2019-04-07T16:15:38.397Z,99896.89
2019-04-07T16:18:12.565Z,99892.16
2019-04-07T16:20:46.055Z,99887.14
2019-04-07T16:23:19.603Z,99889.40
2019-04-07T16:25:54.975Z,99893.63
2019-04-07T16:28:28.239Z,99900.95
2019-04-07T16:31:01.611Z,99901.95
2019-04-07T16:33:36.081Z,99902.42
2019-04-07T16:36:10.766Z,99905.44
2019-04-07T16:38:44.364Z,99909.27
2019-04-07T16:41:17.891Z,99900.52
2019-04-07T16:43:51.823Z,99898.87
2019-04-07T16:46:25.395Z,99905.00
2019-04-07T16:48:59.722Z,99905.64
2019-04-07T16:51:34.281Z,99904.44
2019-04-07T16:54:11.652Z,99899.38
2019-04-07T16:56:44.175Z,99912.14
2019-04-07T16:59:19.300Z,99904.80
2019-04-07T17:01:52.980Z,99913.59
2019-04-07T17:04:26.815Z,99907.81
2019-04-07T17:07:04.424Z,99907.48
2019-04-07T17:09:36.608Z,99910.89
2019-04-07T17:12:11.590Z,99906.91
2019-04-07T17:14:45.977Z,99909.76
2019-04-07T17:17:21.700Z,99909.12
2019-04-07T17:19:57.354Z,99911.05
2019-04-07T17:22:30.405Z,99909.90
2019-04-07T17:25:07.901Z,99913.36
2019-04-07T17:27:42.376Z,99917.64
2019-04-07T17:30:18.539Z,99920.27
2019-04-07T17:32:52.222Z,99921.11
2019-04-07T17:35:26.715Z,99923.47
2019-04-07T17:38:04.614Z,99926.88
2019-04-07T17:40:39.187Z,99931.16
2019-04-07T17:43:25.800Z,99928.31
2019-04-07T17:45:54.647Z,99937.89
2019-04-07T17:51:36.328Z,99939.34
2019-04-07T17:54:10.177Z,99933.16
2019-04-07T17:56:54.926Z,99939.97
2019-04-07T17:59:30.349Z,99948.03
2019-04-07T18:02:19.284Z,99954.48
2019-04-07T18:04:55.094Z,99953.65
2019-04-07T18:07:46.626Z,99960.31
2019-04-07T18:10:30.693Z,99961.69
2019-04-07T18:13:12.071Z,99968.38
2019-04-07T18:16:06.268Z,99966.66
2019-04-07T18:18:59.316Z,99971.42
2019-04-07T18:21:45.829Z,99966.92
2019-04-07T18:24:35.609Z,99978.60
2019-04-07T18:27:19.075Z,99975.02
2019-04-07T18:33:06.566Z,99985.09
2019-04-07T18:35:42.045Z,99986.16
2019-04-07T18:38:29.724Z,99987.78
2019-04-07T18:41:10.477Z,99996.31
2019-04-07T18:43:53.814Z,100003.09
2019-04-07T18:46:29.741Z,100002.70
2019-04-07T18:49:05.977Z,100006.70
2019-04-07T18:51:58.086Z,100011.25
2019-04-07T18:57:30.567Z,100022.54
2019-04-07T19:00:16.932Z,100027.41
2019-04-07T19:02:57.847Z,100033.37
2019-04-07T19:05:35.098Z,100041.84
2019-04-07T19:08:25.843Z,100046.23
2019-04-07T19:11:12.840Z,100043.14
2019-04-07T19:14:14.277Z,100057.20
2019-04-07T19:16:49.251Z,100057.91
2019-04-07T19:19:27.757Z,100058.52
2019-04-07T19:22:21.155Z,100061.41
2019-04-07T19:24:55.859Z,100057.42
2019-04-07T19:27:33.848Z,100065.53
2019-04-07T19:30:14.451Z,100070.37
2019-04-07T19:32:52.637Z,100074.73
2019-04-07T19:35:44.934Z,100070.52
2019-04-07T19:38:31.924Z,100071.95
2019-04-07T19:41:10.957Z,100065.70
2019-04-07T19:43:50.025Z,100065.00
2019-04-07T19:46:44.160Z,100069.84
2019-04-07T19:49:27.698Z,100066.59
2019-04-07T19:52:17.737Z,100068.27
2019-04-07T19:55:01.863Z,100062.52
2019-04-07T19:57:49.029Z,100074.19
2019-04-07T20:00:26.323Z,100066.45
2019-04-07T20:03:17.837Z,100065.69
2019-04-07T20:06:09.351Z,100070.73
2019-04-07T20:08:44.301Z,100081.08
2019-04-07T20:11:37.081Z,100081.12
2019-04-07T20:14:14.433Z,100081.73
2019-04-07T20:16:49.792Z,100084.33
2019-04-07T20:19:33.645Z,100083.39
2019-04-07T20:22:08.996Z,100081.41
2019-04-07T20:24:49.167Z,100085.48
2019-04-07T20:27:29.838Z,100084.87
2019-04-07T20:33:18.682Z,100088.64
2019-04-07T20:36:17.255Z,100090.38
2019-04-07T20:38:46.734Z,100091.19
2019-04-07T20:41:24.619Z,100099.64
2019-04-07T20:44:16.020Z,100094.46
2019-04-07T20:47:00.763Z,100103.33
2019-04-07T20:49:43.608Z,100101.39
2019-04-07T20:52:34.863Z,100096.42
2019-04-07T20:55:19.248Z,100099.45
2019-04-07T20:58:11.581Z,100100.09
2019-04-07T21:00:56.078Z,100101.07
2019-04-07T21:03:25.329Z,100104.99
2019-04-07T21:06:18.909Z,100099.03
2019-04-07T21:09:03.869Z,100100.89
2019-04-07T21:11:55.059Z,100100.06
2019-04-07T21:14:38.989Z,100101.83
2019-04-07T21:20:34.198Z,100104.17
2019-04-07T21:23:21.733Z,100102.45
2019-04-07T21:26:05.829Z,100103.91
2019-04-07T21:28:40.776Z,100104.78
2019-04-07T21:31:32.551Z,100104.90
2019-04-07T21:34:16.659Z,100104.17
2019-04-07T21:37:10.692Z,100100.98
2019-04-07T21:39:43.360Z,100104.76
2019-04-07T21:42:34.373Z,100100.57
2019-04-07T21:45:35.378Z,100106.24
2019-04-07T21:48:11.720Z,100105.92
2019-04-07T21:50:46.848Z,100107.89
2019-04-07T21:53:23.829Z,100107.16
2019-04-07T21:56:01.726Z,100106.14
2019-04-07T21:58:54.879Z,100105.39
2019-04-07T22:01:37.691Z,100104.55
2019-04-07T22:04:12.546Z,100111.87
2019-04-07T22:06:53.565Z,100112.94
2019-04-07T22:09:34.378Z,100111.94
2019-04-07T22:12:08.530Z,100111.27
2019-04-07T22:14:44.220Z,100113.75
2019-04-07T22:17:17.173Z,100111.28
2019-04-07T22:19:50.528Z,100108.20
2019-04-07T22:22:26.300Z,100117.23
2019-04-07T22:24:59.920Z,100111.41
2019-04-07T22:27:33.613Z,100111.02
2019-04-07T22:30:09.128Z,100117.92
2019-04-07T22:32:42.804Z,100112.98
2019-04-07T22:35:16.885Z,100122.88
2019-04-07T22:37:51.090Z,100118.63
2019-04-07T22:40:25.374Z,100115.08
2019-04-07T22:42:59.615Z,100114.09
2019-04-07T22:45:33.079Z,100113.66
2019-04-07T22:48:08.257Z,100113.66
2019-04-07T22:50:41.879Z,100109.52
2019-04-07T22:53:15.449Z,100114.27
2019-04-07T22:55:48.851Z,100111.41
2019-04-07T22:58:22.311Z,100120.94
2019-04-07T23:00:55.770Z,100116.47
2019-04-07T23:03:29.375Z,100109.00
2019-04-07T23:06:03.159Z,100116.73
2019-04-07T23:08:36.983Z,100113.07
2019-04-07T23:11:10.445Z,100122.14
2019-04-07T23:13:43.992Z,100118.61
2019-04-07T23:16:18.650Z,100123.87
2019-04-07T23:18:52.403Z,100121.21
2019-04-07T23:21:26.760Z,100120.25
2019-04-07T23:24:01.241Z,100120.33
2019-04-07T23:26:34.639Z,100124.49
2019-04-07T23:29:07.998Z,100124.55
2019-04-07T23:31:41.547Z,100115.69
2019-04-07T23:34:15.024Z,100123.33
2019-04-07T23:36:48.488Z,100119.50
2019-04-07T23:39:21.903Z,100125.01
2019-04-07T23:41:55.294Z,100118.81
2019-04-07T23:44:29.637Z,100121.83
2019-04-07T23:47:03.703Z,100133.42
2019-04-07T23:49:37.206Z,100125.80
2019-04-07T23:52:11.090Z,100130.05
2019-04-07T23:54:44.560Z,100125.80
2019-04-07T23:57:18.100Z,100125.02
2019-04-07T23:59:51.569Z,100131.97
